Weather at San Diego Country Club Heliport

Public forecast

Using degrees Celsius for public forecast. Weather courtesy of forecast.io.

Closest aviation weather report (METAR) to San Diego Country Club Heliport

Closest report is San Fernando Airport, 15.3 nm (28.3 km) NE.

2024/05/28 02:00 (retrieved 22 minutes ago)

SADF 280200Z 21011KT 5000 -DZ OVC009 09/07 Q1026

Closest aviation forecast (TAF) to San Diego Country Club Heliport

Forecast is more than 6 hours old.

Closest forecast is Rubem Berta Airport, 303.4 nm (562.0 km) NNE.

2024/05/27 18:00 (retrieved 8 hours ago)

TAF SBUG 271500Z 2718/2806 21012KT 9999 BKN010 TX10/2718Z TN07/2806Z BECMG 2719/2721 SCT015 BECMG 2802/2804 BKN008 RMK PDW